createdAt,value
2018-07-06T05:07:33.683Z,99.90
2018-07-06T05:10:20.664Z,99.90
2018-07-06T05:13:07.772Z,99.90
2018-07-06T05:15:55.000Z,99.90
2018-07-06T05:18:42.100Z,99.90
2018-07-06T05:21:29.172Z,99.90
2018-07-06T05:24:16.008Z,99.90
2018-07-06T05:27:02.944Z,99.90
2018-07-06T05:29:50.061Z,99.90
2018-07-06T05:32:37.003Z,99.90
2018-07-06T05:35:23.858Z,99.90
2018-07-06T05:38:10.880Z,99.90
2018-07-06T05:40:58.017Z,99.90
2018-07-06T05:43:44.934Z,99.90
2018-07-06T05:46:32.056Z,99.90
2018-07-06T05:49:19.132Z,99.90
2018-07-06T05:52:06.132Z,99.90
2018-07-06T05:55:56.396Z,99.90
2018-07-06T05:58:43.292Z,99.90
2018-07-06T06:01:30.336Z,99.90
2018-07-06T06:04:17.412Z,99.90
2018-07-06T06:07:04.389Z,99.90
2018-07-06T06:09:35.076Z,99.90
2018-07-06T06:12:05.230Z,99.90
2018-07-06T06:14:35.264Z,99.90
2018-07-06T06:17:05.652Z,99.90
2018-07-06T06:19:35.828Z,99.90
2018-07-06T06:22:06.184Z,99.90
2018-07-06T06:24:36.307Z,99.90
2018-07-06T06:27:06.460Z,99.90
2018-07-06T06:29:37.229Z,99.90
2018-07-06T06:32:08.737Z,99.90
2018-07-06T06:34:38.876Z,99.90
2018-07-06T06:37:08.952Z,99.90
2018-07-06T06:39:39.303Z,99.90
2018-07-06T06:42:09.393Z,99.90
2018-07-06T06:44:39.846Z,99.90
2018-07-06T06:47:09.904Z,99.90
2018-07-06T06:49:40.046Z,99.90
2018-07-06T06:52:10.204Z,99.90
2018-07-06T06:54:40.392Z,99.90
2018-07-06T06:57:10.468Z,99.90
2018-07-06T06:59:40.940Z,99.90
2018-07-06T07:02:11.049Z,99.90
2018-07-06T07:04:41.235Z,99.90
2018-07-06T07:07:11.396Z,99.90
2018-07-06T07:09:41.584Z,99.90
2018-07-06T07:12:11.668Z,99.90
2018-07-06T07:14:41.854Z,99.90
2018-07-06T07:17:12.017Z,99.90
2018-07-06T07:19:42.344Z,99.90
2018-07-06T07:22:12.628Z,99.90
2018-07-06T07:24:42.836Z,99.90
2018-07-06T07:27:13.033Z,99.90
2018-07-06T07:29:43.220Z,99.90
2018-07-06T07:32:13.335Z,99.90
2018-07-06T07:34:43.460Z,99.90
2018-07-06T07:37:13.672Z,99.90
2018-07-06T07:39:43.980Z,99.90
2018-07-06T07:42:14.278Z,99.90
2018-07-06T07:44:44.416Z,99.90
2018-07-06T07:49:44.356Z,99.90
2018-07-06T07:52:31.318Z,99.90
2018-07-06T07:55:01.445Z,99.90
2018-07-06T07:57:31.647Z,99.90
2018-07-06T08:00:01.810Z,99.90
2018-07-06T08:02:32.037Z,99.90
2018-07-06T08:05:02.232Z,99.90
2018-07-06T08:07:32.388Z,99.90
2018-07-06T08:10:02.580Z,99.90
2018-07-06T08:12:32.908Z,99.90
2018-07-06T08:15:03.104Z,99.90
2018-07-06T08:17:33.268Z,99.90
2018-07-06T08:20:03.401Z,99.90
2018-07-06T08:22:33.508Z,99.90
2018-07-06T08:25:03.716Z,99.90
2018-07-06T08:27:33.939Z,99.90
2018-07-06T08:30:04.072Z,99.90
2018-07-06T08:32:34.201Z,99.90
2018-07-06T08:35:21.106Z,99.90
2018-07-06T08:38:03.651Z,99.90
2018-07-06T08:40:33.863Z,99.90
2018-07-06T08:43:05.529Z,99.90
2018-07-06T08:45:36.168Z,99.90
2018-07-06T08:48:06.270Z,99.90
2018-07-06T08:50:36.364Z,99.90
2018-07-06T08:53:06.636Z,99.90
2018-07-06T08:55:36.719Z,99.90
2018-07-06T08:58:06.834Z,99.90
2018-07-06T09:00:36.916Z,99.90
2018-07-06T09:03:07.419Z,99.90
2018-07-06T09:05:37.500Z,99.90
2018-07-06T09:08:07.608Z,99.90
2018-07-06T09:10:37.678Z,99.90
2018-07-06T09:13:08.010Z,99.90
2018-07-06T09:15:37.984Z,99.90
2018-07-06T09:18:08.095Z,99.90
2018-07-06T09:23:07.864Z,99.90
2018-07-06T09:25:38.244Z,99.90
2018-07-06T09:28:08.243Z,99.90
2018-07-06T09:30:38.364Z,99.90
2018-07-06T09:33:08.572Z,99.90
2018-07-06T09:35:38.648Z,99.90
2018-07-06T09:38:08.748Z,99.90
2018-07-06T09:40:38.940Z,99.90
2018-07-06T09:43:09.128Z,99.90
2018-07-06T09:45:39.233Z,99.90
2018-07-06T09:48:09.340Z,99.90
2018-07-06T09:50:39.514Z,99.90
2018-07-06T09:53:10.277Z,99.90
2018-07-06T09:55:40.440Z,99.90
2018-07-06T09:58:10.607Z,99.90
2018-07-06T10:00:46.051Z,99.90
2018-07-06T10:03:16.746Z,99.90
2018-07-06T10:05:46.964Z,99.90
2018-07-06T10:08:17.084Z,99.90
2018-07-06T10:10:47.231Z,99.90
2018-07-06T10:13:19.087Z,99.90
2018-07-06T10:15:55.476Z,99.90
2018-07-06T10:18:25.668Z,99.90
2018-07-06T10:20:55.761Z,99.90
2018-07-06T10:23:26.150Z,99.90
2018-07-06T10:25:56.301Z,99.90
2018-07-06T10:30:55.319Z,99.90
2018-07-06T10:33:25.564Z,99.90
2018-07-06T10:35:55.600Z,99.90
2018-07-06T10:38:25.816Z,99.90
2018-07-06T10:40:55.920Z,99.90
2018-07-06T10:45:55.753Z,99.90
2018-07-06T10:48:25.849Z,99.90
2018-07-06T10:50:55.924Z,99.90
2018-07-06T10:53:26.112Z,99.90
2018-07-06T10:55:56.196Z,99.90
2018-07-06T10:58:26.332Z,99.90
2018-07-06T11:00:56.437Z,99.90
2018-07-06T11:03:26.522Z,99.90
2018-07-06T11:05:56.596Z,99.90
2018-07-06T11:08:26.681Z,99.90
2018-07-06T11:10:56.768Z,99.90
2018-07-06T11:13:26.820Z,99.90
2018-07-06T11:15:56.968Z,99.90
2018-07-06T11:18:27.157Z,99.90
2018-07-06T11:20:57.308Z,99.90
2018-07-06T11:23:27.448Z,99.90
2018-07-06T11:25:57.548Z,99.90
2018-07-06T11:28:27.675Z,99.90
2018-07-06T11:30:57.911Z,99.90
2018-07-06T11:33:28.046Z,99.90
2018-07-06T11:35:58.132Z,99.90
2018-07-06T11:38:28.181Z,99.90
2018-07-06T11:40:58.392Z,99.90
2018-07-06T11:43:28.476Z,99.90
2018-07-06T11:45:58.608Z,99.90
2018-07-06T11:48:28.688Z,99.90
2018-07-06T11:50:58.840Z,99.90
2018-07-06T11:53:29.131Z,99.90
2018-07-06T11:55:59.315Z,99.90
2018-07-06T11:58:29.400Z,99.90
2018-07-06T12:00:59.512Z,99.90
2018-07-06T12:03:29.596Z,99.90
2018-07-06T12:05:59.736Z,99.90
2018-07-06T12:08:29.859Z,99.90
2018-07-06T12:10:59.944Z,99.90
2018-07-06T12:13:30.038Z,99.90
2018-07-06T12:16:00.132Z,99.90
2018-07-06T12:18:30.980Z,99.90
2018-07-06T12:21:01.097Z,99.90
2018-07-06T12:23:31.313Z,99.90
2018-07-06T12:26:01.508Z,99.90
2018-07-06T12:28:31.692Z,99.90
2018-07-06T12:31:03.268Z,99.90
2018-07-06T12:33:33.943Z,99.90
2018-07-06T12:36:04.276Z,99.90
2018-07-06T12:38:34.348Z,99.90
2018-07-06T12:41:06.638Z,99.90
2018-07-06T12:43:37.289Z,99.90
2018-07-06T12:51:07.428Z,99.90
2018-07-06T12:53:37.512Z,99.90
2018-07-06T12:56:07.644Z,99.90
2018-07-06T12:58:37.909Z,99.90
2018-07-06T13:01:08.108Z,99.90
2018-07-06T13:03:38.249Z,99.90
2018-07-06T13:06:08.516Z,99.90
2018-07-06T13:08:38.584Z,99.90
2018-07-06T13:11:08.708Z,99.90
2018-07-06T13:13:38.829Z,99.90
2018-07-06T13:16:08.944Z,99.90
2018-07-06T13:18:39.028Z,99.90
2018-07-06T13:21:09.196Z,99.90
2018-07-06T13:23:39.361Z,99.90
2018-07-06T13:26:09.485Z,99.90
2018-07-06T13:28:39.638Z,99.90
2018-07-06T13:31:09.730Z,99.90
2018-07-06T13:33:39.913Z,99.90
2018-07-06T13:36:10.000Z,99.90
2018-07-06T13:38:40.089Z,99.90
2018-07-06T13:41:10.201Z,99.90
2018-07-06T13:43:40.286Z,99.90
2018-07-06T13:46:10.364Z,99.90
2018-07-06T13:48:40.461Z,99.90
2018-07-06T13:51:10.564Z,99.90
2018-07-06T13:53:40.640Z,99.90
2018-07-06T13:56:10.741Z,99.90
2018-07-06T14:01:10.593Z,99.90
2018-07-06T14:03:40.652Z,99.90
2018-07-06T14:06:10.765Z,99.90
2018-07-06T14:08:41.004Z,99.90
2018-07-06T14:11:11.110Z,99.90
2018-07-06T14:13:41.296Z,99.90
2018-07-06T14:16:11.384Z,99.90
2018-07-06T14:18:41.496Z,99.90
2018-07-06T14:21:11.593Z,99.60
2018-07-06T14:23:41.673Z,99.70
2018-07-06T14:26:11.748Z,99.40
2018-07-06T14:28:41.836Z,99.30
2018-07-06T14:31:11.928Z,99.60
2018-07-06T14:36:12.608Z,99.10
2018-07-06T14:38:42.825Z,99.20
2018-07-06T14:41:13.205Z,98.80
2018-07-06T14:43:43.422Z,98.50
2018-07-06T14:46:13.516Z,98.60
2018-07-06T14:48:43.616Z,98.50
2018-07-06T14:51:13.746Z,98.50
2018-07-06T14:53:43.895Z,98.80
2018-07-06T14:56:13.993Z,98.60
2018-07-06T14:58:44.092Z,98.40
2018-07-06T15:01:14.260Z,98.30
2018-07-06T15:03:44.360Z,97.70
2018-07-06T15:06:14.571Z,97.30
2018-07-06T15:08:45.092Z,97.20
2018-07-06T15:11:15.196Z,97.70
2018-07-06T15:13:45.493Z,97.30
2018-07-06T15:16:15.581Z,97.00
2018-07-06T15:18:45.678Z,95.60
2018-07-06T15:21:16.212Z,96.40
2018-07-06T15:23:46.536Z,96.20
2018-07-06T15:26:16.752Z,96.40
2018-07-06T15:28:47.056Z,96.50
2018-07-06T15:31:17.501Z,97.00
2018-07-06T15:33:47.577Z,96.50
2018-07-06T15:36:17.688Z,96.20
2018-07-06T15:38:47.920Z,96.70
2018-07-06T15:41:18.131Z,97.00
2018-07-06T15:43:48.390Z,96.60
2018-07-06T15:46:18.469Z,96.30
2018-07-06T15:48:48.910Z,96.10
2018-07-06T15:51:19.268Z,96.40
2018-07-06T15:53:49.534Z,95.90
2018-07-06T15:56:19.950Z,95.90
2018-07-06T15:58:50.457Z,95.70
2018-07-06T16:01:20.785Z,95.50
2018-07-06T16:03:51.151Z,95.30
2018-07-06T16:06:21.312Z,95.60
2018-07-06T16:08:51.437Z,95.20
2018-07-06T16:11:21.575Z,94.90
2018-07-06T16:13:51.731Z,95.50
2018-07-06T16:16:22.475Z,95.50
2018-07-06T16:18:52.577Z,96.00
2018-07-06T16:21:22.852Z,95.90
2018-07-06T16:23:53.176Z,96.30
2018-07-06T16:26:23.249Z,96.60
2018-07-06T16:28:53.476Z,96.90
2018-07-06T16:31:23.640Z,97.00
2018-07-06T16:33:53.845Z,96.60
2018-07-06T16:36:24.187Z,96.80
2018-07-06T16:38:54.288Z,96.90
2018-07-06T16:41:24.396Z,97.10
2018-07-06T16:43:54.612Z,97.40
2018-07-06T16:46:25.100Z,97.60
2018-07-06T16:48:55.169Z,97.30
2018-07-06T16:51:25.268Z,97.70
2018-07-06T16:53:55.457Z,97.70
2018-07-06T16:56:26.056Z,97.50
2018-07-06T16:58:56.180Z,97.40
2018-07-06T17:01:26.339Z,97.60
2018-07-06T17:03:56.920Z,98.00
2018-07-06T17:06:27.010Z,98.10
2018-07-06T17:08:57.422Z,98.30
2018-07-06T17:11:27.564Z,98.60
2018-07-06T17:13:57.681Z,97.60
2018-07-06T17:18:59.133Z,98.40
2018-07-06T17:23:59.628Z,98.20
2018-07-06T17:26:30.129Z,98.20
2018-07-06T17:29:00.447Z,98.30
2018-07-06T17:31:30.744Z,98.10
2018-07-06T17:34:02.113Z,98.30
2018-07-06T17:36:33.150Z,98.60
2018-07-06T17:39:04.729Z,98.60
2018-07-06T17:41:35.112Z,98.50
2018-07-06T17:44:05.383Z,98.60
2018-07-06T17:46:35.896Z,98.90
2018-07-06T17:49:07.902Z,99.10
2018-07-06T17:51:38.496Z,99.10
2018-07-06T17:54:09.103Z,99.20
2018-07-06T17:56:39.607Z,99.30
2018-07-06T17:59:09.876Z,99.40
2018-07-06T18:01:40.204Z,99.70
2018-07-06T18:04:10.768Z,99.50
2018-07-06T18:06:41.344Z,99.70
2018-07-06T18:09:12.227Z,99.40
2018-07-06T18:11:43.255Z,99.50
2018-07-06T18:14:14.469Z,99.00
2018-07-06T18:16:45.133Z,99.70
2018-07-06T18:19:15.898Z,99.90
2018-07-06T18:21:46.506Z,99.90
2018-07-06T18:24:17.089Z,99.90
2018-07-06T18:26:48.104Z,99.90
2018-07-06T18:29:18.795Z,99.90
2018-07-06T18:31:49.505Z,99.90
2018-07-06T18:34:20.351Z,99.90
2018-07-06T18:36:51.210Z,99.90
2018-07-06T18:39:22.293Z,99.90
2018-07-06T18:41:53.022Z,99.90
2018-07-06T18:44:24.658Z,99.90
2018-07-06T18:46:57.142Z,99.90
2018-07-06T18:49:27.888Z,99.90
2018-07-06T18:51:58.660Z,99.90
2018-07-06T18:54:28.986Z,99.90
2018-07-06T18:57:01.239Z,99.90
2018-07-06T18:59:31.699Z,99.90
2018-07-06T19:02:02.101Z,99.90
2018-07-06T19:04:32.811Z,99.90
2018-07-06T19:07:03.314Z,99.90
2018-07-06T19:09:33.805Z,99.90
2018-07-06T19:12:04.109Z,99.90
2018-07-06T19:14:34.695Z,99.90
2018-07-06T19:17:07.240Z,99.90
2018-07-06T19:19:37.955Z,99.90
2018-07-06T19:22:08.340Z,99.90
2018-07-06T19:24:39.250Z,99.90
2018-07-06T19:27:10.163Z,99.90
2018-07-06T19:29:42.375Z,99.90
2018-07-06T19:32:13.897Z,99.90
2018-07-06T19:34:44.552Z,99.90
2018-07-06T19:37:15.020Z,99.90
2018-07-06T19:39:45.344Z,99.90
2018-07-06T19:42:15.808Z,99.90
2018-07-06T19:44:46.109Z,99.90
2018-07-06T19:47:16.255Z,99.90
2018-07-06T19:49:46.439Z,99.90
2018-07-06T19:52:17.451Z,99.90
2018-07-06T19:54:48.064Z,99.90
2018-07-06T19:57:18.747Z,99.90
2018-07-06T19:59:49.167Z,99.90
2018-07-06T20:02:19.554Z,99.90
2018-07-06T20:04:50.351Z,99.90
2018-07-06T20:07:21.483Z,99.90
2018-07-06T20:09:52.407Z,99.90
2018-07-06T20:12:23.311Z,99.90
2018-07-06T20:14:54.142Z,99.90
2018-07-06T20:17:24.736Z,99.90
2018-07-06T20:19:55.364Z,99.90
2018-07-06T20:22:25.621Z,99.90
2018-07-06T20:24:56.464Z,99.90
2018-07-06T20:27:27.408Z,99.90
2018-07-06T20:29:57.639Z,99.90
2018-07-06T20:32:27.757Z,99.90
2018-07-06T20:34:57.943Z,99.90
2018-07-06T20:37:28.100Z,99.90
2018-07-06T20:39:58.196Z,99.90
2018-07-06T20:42:28.402Z,99.90
2018-07-06T20:44:58.573Z,99.90
2018-07-06T20:47:28.907Z,99.90
2018-07-06T20:49:59.002Z,99.90
2018-07-06T20:52:29.120Z,99.90
2018-07-06T20:54:59.216Z,99.90
2018-07-06T20:57:29.349Z,99.90
2018-07-06T20:59:59.448Z,99.90
2018-07-06T21:02:29.556Z,99.90
2018-07-06T21:04:59.631Z,99.90
2018-07-06T21:07:29.704Z,99.90
2018-07-06T21:09:59.865Z,99.90
2018-07-06T21:12:29.930Z,99.90
2018-07-06T21:15:00.055Z,99.90
2018-07-06T21:17:30.140Z,99.90
2018-07-06T21:20:00.245Z,99.90
2018-07-06T21:22:30.348Z,99.90
2018-07-06T21:25:00.416Z,99.90
2018-07-06T21:27:30.560Z,99.90
2018-07-06T21:30:00.720Z,99.90
2018-07-06T21:32:30.830Z,99.90
2018-07-06T21:35:00.990Z,99.90
2018-07-06T21:37:31.153Z,99.90
2018-07-06T21:40:01.257Z,99.90
2018-07-06T21:42:31.336Z,99.90
2018-07-06T21:45:01.430Z,99.90
2018-07-06T21:47:31.510Z,99.90
2018-07-06T21:50:01.641Z,99.90
2018-07-06T21:52:31.808Z,99.90
2018-07-06T21:55:02.012Z,99.90
2018-07-06T21:57:32.123Z,99.90
2018-07-06T22:00:02.272Z,99.90
2018-07-06T22:02:32.425Z,99.90
2018-07-06T22:05:02.707Z,99.90
2018-07-06T22:07:33.158Z,99.90
2018-07-06T22:10:05.056Z,99.90
2018-07-06T22:15:48.646Z,99.90
2018-07-06T22:18:20.661Z,99.90
2018-07-06T22:21:15.386Z,99.90
2018-07-06T22:30:02.713Z,99.90
2018-07-06T22:32:33.511Z,99.90
2018-07-06T22:35:17.257Z,99.90
2018-07-06T22:38:13.811Z,99.90
2018-07-06T22:41:33.264Z,99.90
2018-07-06T22:48:18.576Z,99.90
2018-07-06T22:51:00.085Z,99.90
2018-07-06T22:53:32.951Z,99.90
2018-07-06T22:57:21.684Z,99.90
2018-07-06T22:59:53.294Z,99.90
2018-07-06T23:02:47.076Z,99.90
2018-07-06T23:06:06.056Z,99.90
2018-07-06T23:08:45.478Z,99.90
2018-07-06T23:11:43.945Z,99.90
2018-07-06T23:14:14.072Z,99.90
2018-07-06T23:16:44.181Z,99.90
2018-07-06T23:19:14.300Z,99.90
2018-07-06T23:21:44.409Z,99.90
2018-07-06T23:24:16.408Z,99.90
2018-07-06T23:26:46.965Z,99.90
2018-07-06T23:29:17.501Z,99.90
2018-07-06T23:31:47.670Z,99.90
2018-07-06T23:34:17.781Z,99.90
2018-07-06T23:36:47.924Z,99.90
2018-07-06T23:39:18.060Z,99.90
2018-07-06T23:41:48.328Z,99.90
2018-07-06T23:44:18.478Z,99.90
2018-07-06T23:46:48.564Z,99.90
2018-07-06T23:49:18.672Z,99.90
2018-07-06T23:51:48.846Z,99.90
2018-07-06T23:54:18.928Z,99.90
2018-07-06T23:56:49.045Z,99.90
2018-07-06T23:59:19.716Z,99.90
